This is the latest recevied weather packets stored in our database for station/object IZ1BLA-10. If no packets are shown the sender has not sent any weather packets the latest 10 day(s).
| Time | Temp. | Humidity | Pressure | Rain* | Wind** | Luminosity | Snow |
|---|---|---|---|---|---|---|---|
| 1777438140 | 10° C | 97% | 1017.7 hPa | - | - | - | - |
| 1777437540 | 10° C | 96% | 1017.5 hPa | - | - | - | - |
| 1777436940 | 10° C | 94% | 1017.5 hPa | - | - | - | - |
| 1777436340 | 9.44° C | 96% | 1017.5 hPa | - | - | - | - |
| 1777435740 | 10° C | 99% | 1017.5 hPa | - | - | - | - |
| 1777435140 | 10.56° C | 89% | 1017.4 hPa | - | - | - | - |
| 1777434540 | 11.11° C | 86% | 1017.1 hPa | - | - | - | - |
| 1777433940 | 10.56° C | 90% | 1017.2 hPa | - | - | - | - |
| 1777433340 | 10.56° C | 91% | 1017.4 hPa | - | - | - | - |
| 1777432740 | 11.11° C | 86% | 1017.2 hPa | - | - | - | - |
| 1777432140 | 11.11° C | 88% | 1017.3 hPa | - | - | - | - |
| 1777431540 | 11.11° C | 88% | 1017.3 hPa | - | - | - | - |
| 1777430940 | 11.67° C | 82% | 1017 hPa | - | - | - | - |
| 1777430340 | 11.67° C | 86% | 1017.1 hPa | - | - | - | - |
| 1777429740 | 11.11° C | 86% | 1017.1 hPa | - | - | - | - |
| 1777429140 | 11.67° C | 86% | 1016.9 hPa | - | - | - | - |
| 1777428540 | 14.44° C | 71% | 1016.1 hPa | - | - | - | - |
| 1777427941 | 13.89° C | 75% | 1016.3 hPa | - | - | - | - |
| 1777427340 | 13.33° C | 77% | 1016.4 hPa | - | - | - | - |
| 1777426740 | 11.67° C | 89% | 1016.7 hPa | - | - | - | - |
| 1777426140 | 12.78° C | 81% | 1016.4 hPa | - | - | - | - |
| 1777425540 | 13.33° C | 79% | 1016.1 hPa | - | - | - | - |
| 1777424940 | 13.33° C | 77% | 1016.1 hPa | - | - | - | - |
| 1777424339 | 12.78° C | 79% | 1016.3 hPa | - | - | - | - |
| 1777423739 | 13.33° C | 76% | 1016.3 hPa | - | - | - | - |
* Rain since midnight (hover to see other rain measurements)
** Current wind speed in m/s (hover to see current wind gust speed)